Isle Saint George, OH (43436)

11:51 PM EST on February 24, 2017 (GMT -0500)
Kelleys Island Ohio | | Change Station

Elev 600 ft 41.59 °N, 82.69 °W | Updated 35 seconds ago

Rain
Rain
53.7 °F
Feels Like 53.7 °F
N
3.0
Wind Variable Wind from NNW
Gusts 5.0 mph

Today
High -- | Low -- °F
--% Chance of Precip.
Yesterday
High -- | Low -- °F
Precip. -- in
Pressure 29.48 in
Visibility 4.0 miles
Clouds Few 1900 ft
Scattered Clouds 2700 ft
Mostly Cloudy 3100 ft
Dew Point 53 °F
Humidity 96%
Rainfall 0.85 in
Snow Depth Not available.
7:13 AM 6:16 PM
Waning Crescent, 2% visible
METAR KPCW 250430Z AUTO 26013KT 4SM RA BR FEW019 SCT027 BKN031 15/14 A2948 RMK
Pressure 29.48 in
Visibility 4.0 miles
Clouds Few 1900 ft
Scattered Clouds 2700 ft
Mostly Cloudy 3100 ft
Dew Point 53 °F
Humidity 96%
Rainfall 0.85 in
Snow Depth Not available.
7:13 AM 6:16 PM
Waning Crescent, 2% visible
METAR KPCW 250430Z AUTO 26013KT 4SM RA BR FEW019 SCT027 BKN031 15/14 A2948 RMK

Get Your Daily Forecast Email!

Thanks for signing up!

Be on the lookout for a verification email in your inbox.

You'll start receiving the daily forecast at 8 AM.

×

10-Day Weather Forecast

Almanac

Astronomy

Feb. 24, 2017 Rise Set
Actual Time
Civil Twilight
Nautical Twilight
Astronomical Twilight
Moon
Length of Visible Light
Length of Day
Tomorrow will be .
, % of the Moon is Illuminated

Today's Extremes

State Highs State Lows

Community

WunderPhotos

Upload Photos

1,962,540 photos uploaded!

WunderBlog® & News

Nearby

Air Quality

  Air Quality AQ Index Pollutant
Not available.

Snow Depth

Station Depth Elevation

Earthquake Activity

City Distance Mag. Time & Date
Minimum magnitude displayed is 2.5.

Coastal Water Temperatures

Place Temperature

Stations

Nearby Weather Stations

Station Location Temp. Windchill Dew Point Humidity Wind Precip. Elev Updated Type
                   

Watches & Warnings

There are currently no watches in effect.